sensor_id;sensor_type;location;lat;lon;timestamp;temperature;humidity
59128;DHT22;44912;52.754;5.994;2024-03-23T00:51:44;6.30;99.90
59128;DHT22;44912;52.754;5.994;2024-03-23T00:54:09;6.20;99.90
59128;DHT22;44912;52.754;5.994;2024-03-23T00:56:35;6.20;99.90
59128;DHT22;44912;52.754;5.994;2024-03-23T00:59:00;6.20;99.90
59128;DHT22;44912;52.754;5.994;2024-03-23T01:01:26;6.10;99.90
59128;DHT22;44912;52.754;5.994;2024-03-23T01:03:52;6.00;99.90
59128;DHT22;44912;52.754;5.994;2024-03-23T01:06:17;5.90;99.90
59128;DHT22;44912;52.754;5.994;2024-03-23T01:08:43;5.90;99.90
59128;DHT22;44912;52.754;5.994;2024-03-23T01:11:08;5.90;99.90
59128;DHT22;44912;52.754;5.994;2024-03-23T01:13:34;6.00;99.90
59128;DHT22;44912;52.754;5.994;2024-03-23T01:16:00;6.00;99.90
59128;DHT22;44912;52.754;5.994;2024-03-23T01:18:25;6.00;99.90
59128;DHT22;44912;52.754;5.994;2024-03-23T01:20:54;5.90;99.90
59128;DHT22;44912;52.754;5.994;2024-03-23T01:23:20;6.00;99.90
59128;DHT22;44912;52.754;5.994;2024-03-23T01:25:55;5.90;99.90
59128;DHT22;44912;52.754;5.994;2024-03-23T01:28:21;6.00;99.90
59128;DHT22;44912;52.754;5.994;2024-03-23T01:30:47;6.00;99.90
59128;DHT22;44912;52.754;5.994;2024-03-23T01:33:12;6.00;99.90
59128;DHT22;44912;52.754;5.994;2024-03-23T01:35:38;6.00;99.90
59128;DHT22;44912;52.754;5.994;2024-03-23T01:38:04;5.90;99.90
59128;DHT22;44912;52.754;5.994;2024-03-23T01:40:29;5.90;99.90
59128;DHT22;44912;52.754;5.994;2024-03-23T01:43:09;5.90;99.90
59128;DHT22;44912;52.754;5.994;2024-03-23T01:45:36;5.90;99.90
59128;DHT22;44912;52.754;5.994;2024-03-23T01:48:02;5.80;99.90
59128;DHT22;44912;52.754;5.994;2024-03-23T01:50:28;5.70;99.90
59128;DHT22;44912;52.754;5.994;2024-03-23T01:52:56;5.80;99.90
59128;DHT22;44912;52.754;5.994;2024-03-23T01:55:23;5.70;99.90
59128;DHT22;44912;52.754;5.994;2024-03-23T01:57:48;5.80;99.90
59128;DHT22;44912;52.754;5.994;2024-03-23T02:00:14;5.80;99.90
59128;DHT22;44912;52.754;5.994;2024-03-23T02:02:47;5.90;99.90
59128;DHT22;44912;52.754;5.994;2024-03-23T02:05:13;5.90;99.90
59128;DHT22;44912;52.754;5.994;2024-03-23T02:07:40;5.90;99.90
59128;DHT22;44912;52.754;5.994;2024-03-23T02:10:07;5.90;99.90
59128;DHT22;44912;52.754;5.994;2024-03-23T02:12:32;5.90;99.90
59128;DHT22;44912;52.754;5.994;2024-03-23T02:14:58;5.80;99.90
59128;DHT22;44912;52.754;5.994;2024-03-23T02:17:24;5.80;99.90
59128;DHT22;44912;52.754;5.994;2024-03-23T02:19:50;5.70;99.90
59128;DHT22;44912;52.754;5.994;2024-03-23T02:22:16;5.70;99.90
59128;DHT22;44912;52.754;5.994;2024-03-23T02:24:42;5.70;99.90
59128;DHT22;44912;52.754;5.994;2024-03-23T02:27:08;5.70;99.90
59128;DHT22;44912;52.754;5.994;2024-03-23T02:29:33;5.70;99.90
59128;DHT22;44912;52.754;5.994;2024-03-23T02:31:59;5.70;99.90
59128;DHT22;44912;52.754;5.994;2024-03-23T02:34:25;5.70;99.90
59128;DHT22;44912;52.754;5.994;2024-03-23T02:36:50;5.70;99.90
59128;DHT22;44912;52.754;5.994;2024-03-23T02:39:16;5.50;99.90
59128;DHT22;44912;52.754;5.994;2024-03-23T02:41:42;5.50;99.90
59128;DHT22;44912;52.754;5.994;2024-03-23T02:44:07;5.40;99.90
59128;DHT22;44912;52.754;5.994;2024-03-23T02:46:33;5.40;99.90
59128;DHT22;44912;52.754;5.994;2024-03-23T02:48:59;5.30;99.90
59128;DHT22;44912;52.754;5.994;2024-03-23T02:51:24;5.30;99.90
59128;DHT22;44912;52.754;5.994;2024-03-23T02:53:50;5.40;99.90
59128;DHT22;44912;52.754;5.994;2024-03-23T02:56:15;5.60;99.90
59128;DHT22;44912;52.754;5.994;2024-03-23T02:58:43;5.70;99.90
59128;DHT22;44912;52.754;5.994;2024-03-23T03:01:08;5.80;99.90
59128;DHT22;44912;52.754;5.994;2024-03-23T03:03:34;5.80;99.90
59128;DHT22;44912;52.754;5.994;2024-03-23T03:06:00;5.90;99.90
59128;DHT22;44912;52.754;5.994;2024-03-23T03:08:25;5.90;99.90
59128;DHT22;44912;52.754;5.994;2024-03-23T03:10:51;5.90;99.90
59128;DHT22;44912;52.754;5.994;2024-03-23T03:13:17;5.90;99.90
59128;DHT22;44912;52.754;5.994;2024-03-23T03:15:46;5.80;99.90
59128;DHT22;44912;52.754;5.994;2024-03-23T03:18:12;5.70;99.90
59128;DHT22;44912;52.754;5.994;2024-03-23T03:20:40;5.70;99.90
59128;DHT22;44912;52.754;5.994;2024-03-23T03:23:07;5.60;99.90
59128;DHT22;44912;52.754;5.994;2024-03-23T03:25:33;5.60;99.90
59128;DHT22;44912;52.754;5.994;2024-03-23T03:27:59;5.60;99.90
59128;DHT22;44912;52.754;5.994;2024-03-23T03:30:25;5.70;99.90
59128;DHT22;44912;52.754;5.994;2024-03-23T03:32:53;5.60;99.90
59128;DHT22;44912;52.754;5.994;2024-03-23T03:35:20;5.60;99.90
59128;DHT22;44912;52.754;5.994;2024-03-23T03:37:45;5.50;99.90
59128;DHT22;44912;52.754;5.994;2024-03-23T03:40:12;5.40;99.90
59128;DHT22;44912;52.754;5.994;2024-03-23T03:42:37;5.40;99.90
59128;DHT22;44912;52.754;5.994;2024-03-23T03:45:04;5.40;99.90
59128;DHT22;44912;52.754;5.994;2024-03-23T03:47:30;5.30;99.90
59128;DHT22;44912;52.754;5.994;2024-03-23T03:49:55;5.40;99.90
59128;DHT22;44912;52.754;5.994;2024-03-23T03:52:21;5.50;99.90
59128;DHT22;44912;52.754;5.994;2024-03-23T03:54:47;5.50;99.90
59128;DHT22;44912;52.754;5.994;2024-03-23T03:57:12;5.50;99.90
59128;DHT22;44912;52.754;5.994;2024-03-23T03:59:38;5.40;99.90
59128;DHT22;44912;52.754;5.994;2024-03-23T04:02:03;5.40;99.90
59128;DHT22;44912;52.754;5.994;2024-03-23T04:04:29;5.40;99.90
59128;DHT22;44912;52.754;5.994;2024-03-23T04:06:59;5.40;99.90
59128;DHT22;44912;52.754;5.994;2024-03-23T04:09:25;5.30;99.90
59128;DHT22;44912;52.754;5.994;2024-03-23T04:11:50;5.30;99.90
59128;DHT22;44912;52.754;5.994;2024-03-23T04:14:16;5.30;99.90
59128;DHT22;44912;52.754;5.994;2024-03-23T04:16:42;5.40;99.90
59128;DHT22;44912;52.754;5.994;2024-03-23T04:19:07;5.40;99.90
59128;DHT22;44912;52.754;5.994;2024-03-23T04:21:33;5.40;99.90
59128;DHT22;44912;52.754;5.994;2024-03-23T04:23:59;5.40;99.90
59128;DHT22;44912;52.754;5.994;2024-03-23T04:26:25;5.50;99.90
59128;DHT22;44912;52.754;5.994;2024-03-23T04:28:50;5.40;99.90
59128;DHT22;44912;52.754;5.994;2024-03-23T04:31:16;5.30;99.90
59128;DHT22;44912;52.754;5.994;2024-03-23T04:33:41;5.30;99.90
59128;DHT22;44912;52.754;5.994;2024-03-23T04:36:07;5.30;99.90
59128;DHT22;44912;52.754;5.994;2024-03-23T04:38:33;5.20;99.90
59128;DHT22;44912;52.754;5.994;2024-03-23T04:40:59;5.10;99.90
59128;DHT22;44912;52.754;5.994;2024-03-23T04:43:28;5.10;99.90
59128;DHT22;44912;52.754;5.994;2024-03-23T04:45:54;5.20;99.90
59128;DHT22;44912;52.754;5.994;2024-03-23T04:48:21;5.10;99.90
59128;DHT22;44912;52.754;5.994;2024-03-23T04:50:54;5.10;99.90
59128;DHT22;44912;52.754;5.994;2024-03-23T04:53:20;5.10;99.90
59128;DHT22;44912;52.754;5.994;2024-03-23T04:55:46;5.00;99.90
59128;DHT22;44912;52.754;5.994;2024-03-23T04:58:12;5.00;99.90
59128;DHT22;44912;52.754;5.994;2024-03-23T05:00:37;5.00;99.90
59128;DHT22;44912;52.754;5.994;2024-03-23T05:03:03;4.90;99.90
59128;DHT22;44912;52.754;5.994;2024-03-23T05:05:29;4.90;99.90
59128;DHT22;44912;52.754;5.994;2024-03-23T05:07:55;4.90;99.90
59128;DHT22;44912;52.754;5.994;2024-03-23T05:10:21;4.90;99.90
59128;DHT22;44912;52.754;5.994;2024-03-23T05:12:46;4.90;99.90
59128;DHT22;44912;52.754;5.994;2024-03-23T05:15:12;4.80;99.90
59128;DHT22;44912;52.754;5.994;2024-03-23T05:17:38;4.80;99.90
59128;DHT22;44912;52.754;5.994;2024-03-23T05:20:04;4.80;99.90
59128;DHT22;44912;52.754;5.994;2024-03-23T05:22:35;4.80;99.90
59128;DHT22;44912;52.754;5.994;2024-03-23T05:25:01;4.80;99.90
59128;DHT22;44912;52.754;5.994;2024-03-23T05:27:30;4.90;99.90
59128;DHT22;44912;52.754;5.994;2024-03-23T05:29:55;4.90;99.90
59128;DHT22;44912;52.754;5.994;2024-03-23T05:32:21;5.00;99.90
59128;DHT22;44912;52.754;5.994;2024-03-23T05:34:47;5.10;99.90
59128;DHT22;44912;52.754;5.994;2024-03-23T05:37:13;5.10;99.90
59128;DHT22;44912;52.754;5.994;2024-03-23T05:39:38;5.30;99.90
59128;DHT22;44912;52.754;5.994;2024-03-23T05:42:04;5.50;99.90
59128;DHT22;44912;52.754;5.994;2024-03-23T05:44:30;5.40;99.90
59128;DHT22;44912;52.754;5.994;2024-03-23T05:46:56;5.40;99.90
59128;DHT22;44912;52.754;5.994;2024-03-23T05:49:22;5.40;99.90
59128;DHT22;44912;52.754;5.994;2024-03-23T05:51:48;5.40;99.90
59128;DHT22;44912;52.754;5.994;2024-03-23T05:54:13;5.40;99.90
59128;DHT22;44912;52.754;5.994;2024-03-23T05:56:39;5.50;99.90
59128;DHT22;44912;52.754;5.994;2024-03-23T05:59:05;5.50;99.90
59128;DHT22;44912;52.754;5.994;2024-03-23T06:01:32;5.60;99.90
59128;DHT22;44912;52.754;5.994;2024-03-23T06:03:58;5.50;99.90
59128;DHT22;44912;52.754;5.994;2024-03-23T06:06:23;5.50;99.90
59128;DHT22;44912;52.754;5.994;2024-03-23T06:08:49;5.50;99.90
59128;DHT22;44912;52.754;5.994;2024-03-23T06:11:14;5.50;99.90
59128;DHT22;44912;52.754;5.994;2024-03-23T06:13:40;5.70;99.90
59128;DHT22;44912;52.754;5.994;2024-03-23T06:16:06;5.80;99.90
59128;DHT22;44912;52.754;5.994;2024-03-23T06:18:32;5.80;99.90
59128;DHT22;44912;52.754;5.994;2024-03-23T06:20:58;5.90;99.90
59128;DHT22;44912;52.754;5.994;2024-03-23T06:23:23;6.00;99.90
59128;DHT22;44912;52.754;5.994;2024-03-23T06:25:49;6.00;99.90
59128;DHT22;44912;52.754;5.994;2024-03-23T06:28:14;6.10;99.90
59128;DHT22;44912;52.754;5.994;2024-03-23T06:30:40;6.20;99.90
59128;DHT22;44912;52.754;5.994;2024-03-23T06:33:05;6.30;99.90
59128;DHT22;44912;52.754;5.994;2024-03-23T06:35:31;6.40;99.90
59128;DHT22;44912;52.754;5.994;2024-03-23T06:37:57;6.40;99.90
59128;DHT22;44912;52.754;5.994;2024-03-23T06:40:23;6.50;99.90
59128;DHT22;44912;52.754;5.994;2024-03-23T06:42:49;6.60;99.90
59128;DHT22;44912;52.754;5.994;2024-03-23T06:45:16;6.60;99.90
59128;DHT22;44912;52.754;5.994;2024-03-23T06:47:41;6.70;99.90
59128;DHT22;44912;52.754;5.994;2024-03-23T06:50:07;6.80;99.90
59128;DHT22;44912;52.754;5.994;2024-03-23T06:52:33;7.00;99.90
59128;DHT22;44912;52.754;5.994;2024-03-23T06:54:58;7.20;99.90
59128;DHT22;44912;52.754;5.994;2024-03-23T06:57:24;7.30;99.90
59128;DHT22;44912;52.754;5.994;2024-03-23T06:59:49;7.30;99.90
59128;DHT22;44912;52.754;5.994;2024-03-23T07:02:16;7.00;99.90
59128;DHT22;44912;52.754;5.994;2024-03-23T07:04:42;6.80;99.90
59128;DHT22;44912;52.754;5.994;2024-03-23T07:07:07;6.70;99.90
59128;DHT22;44912;52.754;5.994;2024-03-23T07:09:33;6.60;99.90
59128;DHT22;44912;52.754;5.994;2024-03-23T07:11:58;6.60;99.90
59128;DHT22;44912;52.754;5.994;2024-03-23T07:14:24;6.50;99.90
59128;DHT22;44912;52.754;5.994;2024-03-23T07:16:51;6.40;99.90
59128;DHT22;44912;52.754;5.994;2024-03-23T07:19:17;6.40;99.90
59128;DHT22;44912;52.754;5.994;2024-03-23T07:21:44;6.30;99.90
59128;DHT22;44912;52.754;5.994;2024-03-23T07:24:10;6.40;99.90
59128;DHT22;44912;52.754;5.994;2024-03-23T07:26:36;6.50;99.90
59128;DHT22;44912;52.754;5.994;2024-03-23T07:29:01;6.50;99.90
59128;DHT22;44912;52.754;5.994;2024-03-23T07:31:27;6.60;99.90
59128;DHT22;44912;52.754;5.994;2024-03-23T07:33:53;6.50;99.90
59128;DHT22;44912;52.754;5.994;2024-03-23T07:36:18;6.40;99.90
59128;DHT22;44912;52.754;5.994;2024-03-23T07:38:44;6.20;99.90
59128;DHT22;44912;52.754;5.994;2024-03-23T07:41:17;6.10;99.90
59128;DHT22;44912;52.754;5.994;2024-03-23T07:43:44;6.00;99.90
59128;DHT22;44912;52.754;5.994;2024-03-23T07:46:10;6.00;99.90
59128;DHT22;44912;52.754;5.994;2024-03-23T07:48:37;6.00;99.90
59128;DHT22;44912;52.754;5.994;2024-03-23T07:51:20;6.10;99.90
59128;DHT22;44912;52.754;5.994;2024-03-23T07:53:46;6.30;99.90
59128;DHT22;44912;52.754;5.994;2024-03-23T07:56:13;6.40;99.90
59128;DHT22;44912;52.754;5.994;2024-03-23T07:58:41;6.60;99.90
59128;DHT22;44912;52.754;5.994;2024-03-23T08:01:14;6.70;99.90
59128;DHT22;44912;52.754;5.994;2024-03-23T08:03:41;6.80;99.90
59128;DHT22;44912;52.754;5.994;2024-03-23T08:06:13;6.90;99.90
59128;DHT22;44912;52.754;5.994;2024-03-23T08:08:41;7.10;99.90
59128;DHT22;44912;52.754;5.994;2024-03-23T08:11:07;7.20;99.90
59128;DHT22;44912;52.754;5.994;2024-03-23T08:13:35;7.10;99.90
59128;DHT22;44912;52.754;5.994;2024-03-23T08:16:02;7.10;99.90
59128;DHT22;44912;52.754;5.994;2024-03-23T08:18:29;7.10;99.90
59128;DHT22;44912;52.754;5.994;2024-03-23T08:21:01;7.30;99.90
59128;DHT22;44912;52.754;5.994;2024-03-23T08:23:28;7.40;99.90
59128;DHT22;44912;52.754;5.994;2024-03-23T08:25:58;7.50;99.90
59128;DHT22;44912;52.754;5.994;2024-03-23T08:28:24;7.50;99.90
59128;DHT22;44912;52.754;5.994;2024-03-23T08:30:50;7.70;99.90
59128;DHT22;44912;52.754;5.994;2024-03-23T08:33:16;7.80;99.90
59128;DHT22;44912;52.754;5.994;2024-03-23T08:35:42;7.80;99.90
59128;DHT22;44912;52.754;5.994;2024-03-23T08:38:07;7.90;99.90
59128;DHT22;44912;52.754;5.994;2024-03-23T08:40:33;7.90;99.90
59128;DHT22;44912;52.754;5.994;2024-03-23T08:42:59;7.80;99.90
59128;DHT22;44912;52.754;5.994;2024-03-23T08:45:25;7.70;99.90
59128;DHT22;44912;52.754;5.994;2024-03-23T08:47:51;7.70;99.90
59128;DHT22;44912;52.754;5.994;2024-03-23T08:50:17;7.80;99.90
59128;DHT22;44912;52.754;5.994;2024-03-23T08:52:42;7.90;99.90
59128;DHT22;44912;52.754;5.994;2024-03-23T08:55:08;7.90;99.90
59128;DHT22;44912;52.754;5.994;2024-03-23T08:57:35;8.00;99.90
59128;DHT22;44912;52.754;5.994;2024-03-23T09:00:02;8.20;99.90
59128;DHT22;44912;52.754;5.994;2024-03-23T09:02:27;8.30;99.90
59128;DHT22;44912;52.754;5.994;2024-03-23T09:04:53;8.30;99.90
59128;DHT22;44912;52.754;5.994;2024-03-23T09:07:19;8.50;99.90
59128;DHT22;44912;52.754;5.994;2024-03-23T09:09:44;8.50;99.90
59128;DHT22;44912;52.754;5.994;2024-03-23T09:12:10;8.40;99.90
59128;DHT22;44912;52.754;5.994;2024-03-23T09:14:35;8.40;99.90
59128;DHT22;44912;52.754;5.994;2024-03-23T09:17:01;8.60;99.90
59128;DHT22;44912;52.754;5.994;2024-03-23T09:19:28;8.60;99.90
59128;DHT22;44912;52.754;5.994;2024-03-23T09:21:54;8.70;99.90
59128;DHT22;44912;52.754;5.994;2024-03-23T09:24:20;8.90;99.90
59128;DHT22;44912;52.754;5.994;2024-03-23T09:26:46;9.00;99.90
59128;DHT22;44912;52.754;5.994;2024-03-23T09:29:12;8.80;99.90
59128;DHT22;44912;52.754;5.994;2024-03-23T09:31:37;8.20;99.90
59128;DHT22;44912;52.754;5.994;2024-03-23T09:34:04;7.50;99.90
59128;DHT22;44912;52.754;5.994;2024-03-23T09:36:29;6.90;99.90
59128;DHT22;44912;52.754;5.994;2024-03-23T09:38:55;6.60;99.90
59128;DHT22;44912;52.754;5.994;2024-03-23T09:41:20;6.30;99.90
59128;DHT22;44912;52.754;5.994;2024-03-23T09:43:46;6.30;99.90
59128;DHT22;44912;52.754;5.994;2024-03-23T09:46:14;6.30;99.90
59128;DHT22;44912;52.754;5.994;2024-03-23T09:48:40;6.30;99.90
59128;DHT22;44912;52.754;5.994;2024-03-23T09:51:07;6.40;99.90
59128;DHT22;44912;52.754;5.994;2024-03-23T09:53:34;6.70;99.90
59128;DHT22;44912;52.754;5.994;2024-03-23T09:56:00;7.00;99.90
59128;DHT22;44912;52.754;5.994;2024-03-23T09:58:25;7.30;99.90
59128;DHT22;44912;52.754;5.994;2024-03-23T10:00:51;7.70;99.90
59128;DHT22;44912;52.754;5.994;2024-03-23T10:03:17;7.80;99.90
59128;DHT22;44912;52.754;5.994;2024-03-23T10:05:42;8.10;99.90
59128;DHT22;44912;52.754;5.994;2024-03-23T10:10:41;8.50;99.90
59128;DHT22;44912;52.754;5.994;2024-03-23T10:13:06;8.50;99.90
59128;DHT22;44912;52.754;5.994;2024-03-23T10:15:36;8.70;99.90
59128;DHT22;44912;52.754;5.994;2024-03-23T10:18:20;8.80;99.90
59128;DHT22;44912;52.754;5.994;2024-03-23T10:23:31;9.30;99.90
59128;DHT22;44912;52.754;5.994;2024-03-23T10:26:19;9.50;99.90
59128;DHT22;44912;52.754;5.994;2024-03-23T10:28:57;9.50;99.90
59128;DHT22;44912;52.754;5.994;2024-03-23T10:31:33;9.10;99.90
59128;DHT22;44912;52.754;5.994;2024-03-23T10:34:03;8.90;99.90
59128;DHT22;44912;52.754;5.994;2024-03-23T10:36:29;8.80;99.90
59128;DHT22;44912;52.754;5.994;2024-03-23T10:38:56;8.70;99.90
59128;DHT22;44912;52.754;5.994;2024-03-23T10:41:27;8.80;99.90
59128;DHT22;44912;52.754;5.994;2024-03-23T10:43:53;9.30;99.90
59128;DHT22;44912;52.754;5.994;2024-03-23T10:46:21;9.60;99.90
59128;DHT22;44912;52.754;5.994;2024-03-23T10:48:46;9.50;99.90
59128;DHT22;44912;52.754;5.994;2024-03-23T10:51:14;9.50;99.90
59128;DHT22;44912;52.754;5.994;2024-03-23T10:53:40;9.50;99.90
59128;DHT22;44912;52.754;5.994;2024-03-23T10:56:06;9.20;99.90
59128;DHT22;44912;52.754;5.994;2024-03-23T10:58:40;8.70;99.90
59128;DHT22;44912;52.754;5.994;2024-03-23T11:01:06;8.20;99.90
59128;DHT22;44912;52.754;5.994;2024-03-23T11:03:37;7.70;99.90
59128;DHT22;44912;52.754;5.994;2024-03-23T11:06:06;7.30;99.90
59128;DHT22;44912;52.754;5.994;2024-03-23T11:08:40;7.10;99.90
59128;DHT22;44912;52.754;5.994;2024-03-23T11:11:20;7.00;99.90
59128;DHT22;44912;52.754;5.994;2024-03-23T11:13:53;6.90;99.90
59128;DHT22;44912;52.754;5.994;2024-03-23T11:16:27;6.80;99.90
59128;DHT22;44912;52.754;5.994;2024-03-23T11:18:53;6.90;99.90
59128;DHT22;44912;52.754;5.994;2024-03-23T11:21:54;6.90;99.90
59128;DHT22;44912;52.754;5.994;2024-03-23T11:24:21;6.90;99.90
59128;DHT22;44912;52.754;5.994;2024-03-23T11:26:48;7.00;99.90
59128;DHT22;44912;52.754;5.994;2024-03-23T11:29:17;6.70;99.90
59128;DHT22;44912;52.754;5.994;2024-03-23T11:31:50;6.50;99.90
59128;DHT22;44912;52.754;5.994;2024-03-23T11:34:19;6.40;99.90
59128;DHT22;44912;52.754;5.994;2024-03-23T11:36:46;6.70;99.90
59128;DHT22;44912;52.754;5.994;2024-03-23T11:39:16;7.30;99.90
59128;DHT22;44912;52.754;5.994;2024-03-23T11:41:50;7.40;99.90
59128;DHT22;44912;52.754;5.994;2024-03-23T11:44:20;7.60;99.90
59128;DHT22;44912;52.754;5.994;2024-03-23T11:46:46;7.90;99.90
59128;DHT22;44912;52.754;5.994;2024-03-23T11:49:22;8.20;99.90
59128;DHT22;44912;52.754;5.994;2024-03-23T11:51:48;8.70;99.90
59128;DHT22;44912;52.754;5.994;2024-03-23T11:54:14;9.00;99.90
59128;DHT22;44912;52.754;5.994;2024-03-23T11:56:40;9.30;99.90
59128;DHT22;44912;52.754;5.994;2024-03-23T11:59:06;9.30;99.90
59128;DHT22;44912;52.754;5.994;2024-03-23T12:01:32;8.90;99.90
59128;DHT22;44912;52.754;5.994;2024-03-23T12:03:58;8.60;99.90
59128;DHT22;44912;52.754;5.994;2024-03-23T12:06:24;8.40;99.90
59128;DHT22;44912;52.754;5.994;2024-03-23T12:08:49;8.00;99.90
59128;DHT22;44912;52.754;5.994;2024-03-23T12:11:16;7.80;99.90
59128;DHT22;44912;52.754;5.994;2024-03-23T12:13:44;7.80;99.90
59128;DHT22;44912;52.754;5.994;2024-03-23T12:16:15;7.70;99.90
59128;DHT22;44912;52.754;5.994;2024-03-23T12:18:43;7.50;99.90
59128;DHT22;44912;52.754;5.994;2024-03-23T12:21:08;7.50;99.90
59128;DHT22;44912;52.754;5.994;2024-03-23T12:23:35;7.50;99.90
59128;DHT22;44912;52.754;5.994;2024-03-23T12:26:01;7.50;99.90
59128;DHT22;44912;52.754;5.994;2024-03-23T12:28:27;7.80;99.90
59128;DHT22;44912;52.754;5.994;2024-03-23T12:30:53;8.20;99.90
59128;DHT22;44912;52.754;5.994;2024-03-23T12:33:22;8.50;99.90
59128;DHT22;44912;52.754;5.994;2024-03-23T12:35:51;8.40;99.90
59128;DHT22;44912;52.754;5.994;2024-03-23T12:38:17;8.00;99.90
59128;DHT22;44912;52.754;5.994;2024-03-23T12:40:52;7.80;99.90
59128;DHT22;44912;52.754;5.994;2024-03-23T12:43:18;7.70;99.90
59128;DHT22;44912;52.754;5.994;2024-03-23T12:45:47;7.60;99.90
59128;DHT22;44912;52.754;5.994;2024-03-23T12:48:13;7.50;99.90
59128;DHT22;44912;52.754;5.994;2024-03-23T12:50:39;7.80;99.90
59128;DHT22;44912;52.754;5.994;2024-03-23T12:53:04;7.80;99.90
59128;DHT22;44912;52.754;5.994;2024-03-23T12:55:30;7.80;99.90
59128;DHT22;44912;52.754;5.994;2024-03-23T12:57:56;7.80;99.90
59128;DHT22;44912;52.754;5.994;2024-03-23T13:00:22;8.00;99.90
59128;DHT22;44912;52.754;5.994;2024-03-23T13:02:47;8.40;99.90
59128;DHT22;44912;52.754;5.994;2024-03-23T13:05:13;8.70;99.90
59128;DHT22;44912;52.754;5.994;2024-03-23T13:07:39;8.40;99.90
59128;DHT22;44912;52.754;5.994;2024-03-23T13:10:08;8.30;99.90
59128;DHT22;44912;52.754;5.994;2024-03-23T13:12:34;8.50;99.90
59128;DHT22;44912;52.754;5.994;2024-03-23T13:15:00;8.70;99.90
59128;DHT22;44912;52.754;5.994;2024-03-23T13:17:26;8.40;99.90
59128;DHT22;44912;52.754;5.994;2024-03-23T13:19:53;8.30;99.90
59128;DHT22;44912;52.754;5.994;2024-03-23T13:22:18;8.20;99.90
59128;DHT22;44912;52.754;5.994;2024-03-23T13:24:44;8.30;99.90
59128;DHT22;44912;52.754;5.994;2024-03-23T13:27:10;8.40;99.90
59128;DHT22;44912;52.754;5.994;2024-03-23T13:29:36;8.60;99.90
59128;DHT22;44912;52.754;5.994;2024-03-23T13:32:04;8.80;99.90
59128;DHT22;44912;52.754;5.994;2024-03-23T13:34:29;8.80;99.90
59128;DHT22;44912;52.754;5.994;2024-03-23T13:36:55;8.80;99.90
59128;DHT22;44912;52.754;5.994;2024-03-23T13:39:24;8.60;99.90
59128;DHT22;44912;52.754;5.994;2024-03-23T13:41:50;8.50;99.90
59128;DHT22;44912;52.754;5.994;2024-03-23T13:44:16;8.30;99.90
59128;DHT22;44912;52.754;5.994;2024-03-23T13:46:42;8.40;99.90
59128;DHT22;44912;52.754;5.994;2024-03-23T13:51:47;8.40;99.90
59128;DHT22;44912;52.754;5.994;2024-03-23T13:54:13;8.20;99.90
59128;DHT22;44912;52.754;5.994;2024-03-23T13:56:38;8.20;99.90
59128;DHT22;44912;52.754;5.994;2024-03-23T13:59:04;8.10;99.90
59128;DHT22;44912;52.754;5.994;2024-03-23T14:01:30;8.00;99.90
59128;DHT22;44912;52.754;5.994;2024-03-23T14:03:55;7.80;99.90
59128;DHT22;44912;52.754;5.994;2024-03-23T14:06:21;7.90;99.90
59128;DHT22;44912;52.754;5.994;2024-03-23T14:08:49;8.00;99.90
59128;DHT22;44912;52.754;5.994;2024-03-23T14:11:15;8.00;99.90
59128;DHT22;44912;52.754;5.994;2024-03-23T14:13:40;8.10;99.90
59128;DHT22;44912;52.754;5.994;2024-03-23T14:16:06;8.30;99.90
59128;DHT22;44912;52.754;5.994;2024-03-23T14:18:32;8.30;99.90
59128;DHT22;44912;52.754;5.994;2024-03-23T14:21:01;8.50;99.90
59128;DHT22;44912;52.754;5.994;2024-03-23T14:23:28;8.60;99.90
59128;DHT22;44912;52.754;5.994;2024-03-23T14:25:59;8.70;99.90
59128;DHT22;44912;52.754;5.994;2024-03-23T14:28:25;8.60;99.90
59128;DHT22;44912;52.754;5.994;2024-03-23T14:30:52;8.70;99.90
59128;DHT22;44912;52.754;5.994;2024-03-23T14:33:18;8.80;99.90
59128;DHT22;44912;52.754;5.994;2024-03-23T14:35:52;8.80;99.90
59128;DHT22;44912;52.754;5.994;2024-03-23T14:38:18;8.90;99.90
59128;DHT22;44912;52.754;5.994;2024-03-23T14:40:45;9.00;99.90
59128;DHT22;44912;52.754;5.994;2024-03-23T14:43:10;9.00;99.90
59128;DHT22;44912;52.754;5.994;2024-03-23T14:45:36;9.00;99.90
59128;DHT22;44912;52.754;5.994;2024-03-23T14:48:02;9.10;99.90
59128;DHT22;44912;52.754;5.994;2024-03-23T14:50:28;9.10;99.90
59128;DHT22;44912;52.754;5.994;2024-03-23T14:52:56;9.10;99.90
59128;DHT22;44912;52.754;5.994;2024-03-23T14:55:22;9.10;99.90
59128;DHT22;44912;52.754;5.994;2024-03-23T14:57:48;9.00;99.90
59128;DHT22;44912;52.754;5.994;2024-03-23T15:00:16;9.10;99.90
59128;DHT22;44912;52.754;5.994;2024-03-23T15:02:43;9.20;99.90
59128;DHT22;44912;52.754;5.994;2024-03-23T15:05:10;9.10;99.90
59128;DHT22;44912;52.754;5.994;2024-03-23T15:07:37;9.00;99.90
59128;DHT22;44912;52.754;5.994;2024-03-23T15:10:06;9.10;99.90
59128;DHT22;44912;52.754;5.994;2024-03-23T15:12:33;8.90;99.90
59128;DHT22;44912;52.754;5.994;2024-03-23T15:14:59;8.50;99.90
59128;DHT22;44912;52.754;5.994;2024-03-23T15:17:26;8.20;99.90
59128;DHT22;44912;52.754;5.994;2024-03-23T15:19:51;7.90;99.90
59128;DHT22;44912;52.754;5.994;2024-03-23T15:22:19;7.70;99.90
59128;DHT22;44912;52.754;5.994;2024-03-23T15:24:44;7.50;99.90
59128;DHT22;44912;52.754;5.994;2024-03-23T15:27:10;7.50;99.90
59128;DHT22;44912;52.754;5.994;2024-03-23T15:29:36;7.20;99.90
59128;DHT22;44912;52.754;5.994;2024-03-23T15:32:02;7.50;99.90
59128;DHT22;44912;52.754;5.994;2024-03-23T15:34:29;7.70;99.90
59128;DHT22;44912;52.754;5.994;2024-03-23T15:36:55;7.90;99.90
59128;DHT22;44912;52.754;5.994;2024-03-23T15:39:20;7.90;99.90
59128;DHT22;44912;52.754;5.994;2024-03-23T15:41:48;8.00;99.90
59128;DHT22;44912;52.754;5.994;2024-03-23T15:44:13;8.10;99.90
59128;DHT22;44912;52.754;5.994;2024-03-23T15:46:39;7.90;99.90
59128;DHT22;44912;52.754;5.994;2024-03-23T15:49:05;7.80;99.90
59128;DHT22;44912;52.754;5.994;2024-03-23T15:51:31;7.70;99.90
59128;DHT22;44912;52.754;5.994;2024-03-23T15:54:00;7.40;99.90
59128;DHT22;44912;52.754;5.994;2024-03-23T15:56:26;7.10;99.90
59128;DHT22;44912;52.754;5.994;2024-03-23T15:58:51;7.00;99.90
59128;DHT22;44912;52.754;5.994;2024-03-23T16:01:17;7.10;99.90
59128;DHT22;44912;52.754;5.994;2024-03-23T16:03:43;7.40;99.90
59128;DHT22;44912;52.754;5.994;2024-03-23T16:06:09;7.60;99.90
59128;DHT22;44912;52.754;5.994;2024-03-23T16:08:35;7.70;99.90
59128;DHT22;44912;52.754;5.994;2024-03-23T16:11:04;7.50;99.90
59128;DHT22;44912;52.754;5.994;2024-03-23T16:13:34;7.50;99.90
59128;DHT22;44912;52.754;5.994;2024-03-23T16:16:01;7.40;99.90
59128;DHT22;44912;52.754;5.994;2024-03-23T16:18:37;7.30;99.90
59128;DHT22;44912;52.754;5.994;2024-03-23T16:21:07;7.20;99.90
59128;DHT22;44912;52.754;5.994;2024-03-23T16:23:33;7.30;99.90
59128;DHT22;44912;52.754;5.994;2024-03-23T16:25:59;7.40;99.90
59128;DHT22;44912;52.754;5.994;2024-03-23T16:28:31;7.30;99.90
59128;DHT22;44912;52.754;5.994;2024-03-23T16:31:09;7.50;99.90
59128;DHT22;44912;52.754;5.994;2024-03-23T16:33:36;7.50;99.90
59128;DHT22;44912;52.754;5.994;2024-03-23T16:36:09;7.60;99.90
59128;DHT22;44912;52.754;5.994;2024-03-23T16:38:38;7.60;99.90
59128;DHT22;44912;52.754;5.994;2024-03-23T16:41:05;7.40;99.90